航空気象通報

ウインドサーファーのための航空気象通報による風予報です。

7/31-8/1の航空気象通報(国内、海外)

2007年07月31日 22時11分49秒 | TAF
羽田空港
TAF RJTT 310846Z 311812 12004KT 9000 FEW020
TEMPO 1824 4000 BR
BECMG 0306 18014KT
日本時間1日03-12時:120度から4ノットの風
12-15時:風が変化
15-21時:180度から14ノットの風


那覇空港
ROAH 310842Z 311812 01010KT 9999 FEW025
日本時間1日03-21時:010度から10ノットの風


マウイのカフルイ空港
PHOG 311125Z 311212 04010KT P6SM BKN050
FM2000 06015G25KT P6SM SCT035 SCT050
FM0300 04012KT P6SM SCT035 SCT050
ハワイ時間31日02-10時:040度から10ノットの風

10-17時:060度から15ノット、突風25ノット
17時-1日02時:040度から12ノットの風


サイパン空港
PGSN 311133Z 311212 13009KT P6SM VCSH SCT020 BKN050
マリアナ時間31日22時-1日22時:130度から9ノットの風


グアム空港
TAFPQ TAF PGUM 311133Z 311212 12008KT P6SM VCSH SCT020 BKN050
マリアナ時間31日22時-1日22時:120度から8ノットの風

コメント

7/30-31の航空気象通報(国内、海外)

2007年07月30日 21時26分16秒 | TAF
羽田空港
TAF RJTT 300841Z 301812 02008KT 9000 FEW010 BKN020
TEMPO 1824 4000 BR
BECMG 0003 12008KT
BECMG 0609 19015KT
日本時間31日03-09時:020度から8ノットの風
09-12時:風が変化
12-15時:120度から8ノットの風
15-18時:風が変化
18-21時:190度から15ノットの風


那覇空港
ROAH 300841Z 301812 01006KT 9999 FEW015
日本時間31日03-21時:010度から6ノットの風


マウイのカフルイ空港
PHOG 301130Z 301212 05008KT P6SM FEW030 SCT050
FM2000 04015G25KT P6SM FEW035 SCT050
FM0500 05012G18KT P6SM FEW050
FM0800 06006KT P6SM FEW050
ハワイ時間29日02-10時:050度から8ノットの風
10-19時:050度から15ノット、突風25ノット
19-22時:050度から12ノット、突風18ノット
22時-31日02時:060度から6ノットの風


サイパン空港
PGSN 301130Z 301212 17010KT P6SM VCSH SCT020 SCT040
マリアナ時間30日22時-31日22時:170度から10ノットの風


グアム空港
TAFPQ TAF PGUM 301130Z 301212 17010KT P6SM VCSH SCT020 SCT040
マリアナ時間30日22時-31日22時:170度から10ノットの風
コメント

7/28-29の航空気象通報(国内、海外)

2007年07月28日 20時26分07秒 | TAF
羽田空港
TAF RJTT 280836Z 281812 03006KT 7000 FEW020 SCT030
BECMG 0003 08008KT
BECMG 0609 17010KT
TEMPO 0612 4000 SHRA
BECMG 0912 06012KT
日本時間29日03-09時:030度から6ノットの風
09-12時:風が変化
12-15時:080度から8ノットの風邪
15-18時:風が変化
18-21時:170度から10ノットの風

但し、15-18時:一時、

那覇空港
ROAH 280840Z 281812 03008KT 9999 FEW020
日本時間29日03-21時:030度から8ノットの風


マウイのカフルイ空港
PHOG 281128Z 281212 04012KT P6SM SCT030
FM2000 05020G30KT P6SM SCT030
FM0600 04012KT P6SM SCT030
ハワイ時間28日02-10時:040度から12ノットの風
10-20時:050度から20ノット、突風30ノット
20時-29日02時:040度から12ノットの風


サイパン空港
PGSN 281121Z 281212 VRB06KT P6SM VCSH SCT020 SCT050 BKN150
TEMPO 1216 -SHRA SCT012CB BKN025
マリアナ時間28日22時-29日22時:風向不定6ノットの風
、28日22時-29日02時:一時、

グアム空港
TAFPQ TAF PGUM 281121Z 281212 VRB06KT P6SM VCSH FEW020 SCT100
マリアナ時間28日22時-29日22時:風向不定6ノットの風
コメント

7/27-28の航空気象通報(国内、海外)

2007年07月27日 21時18分31秒 | TAF
羽田空港
TAF RJTT 270846Z 271812 16005KT 8000 FEW030
TEMPO 1824 4000 BR
BECMG 0306 18015KT
日本時間28日03-12時:160度から5ノットの風
12-15時:風が変化
15-21時:180度から15ノットの風


那覇空港
ROAH 270843Z 271812 06006KT 9999 FEW020
日本時間28日03-21時:060度から6ノットの風


マウイのカフルイ空港
PHOG 271120Z 271212 10011KT P6SM SCT030 BKN050
FM2000 04020G30KT P6SM SCT030
FM0600 04012KT P6SM SCT030
ハワイ時間27日02-10時:100度から11ノットの風
10-20時:040度から20ノット、突風30ノット
20時-28日02時:040度から12ノットの風


サイパン空港
PGSN 271137Z 271212 06009KT P6SM VCSH FEW020
マリアナ時間27日22時-28日22時:060度から9ノットの風


グアム空港
TAFPQ TAF PGUM 271137Z 271212 VRB05KT P6SM VCSH FEW015CB SCT050 BKN150
TEMPO 1216 VRB14G22KT 4SM TSRA BKN015CB
マリアナ時間27日22時-28日22時:風向不定5ノットの風
但し、27日22時-28日02時:一時、風向不定14ノット、突風22ノット

コメント

7/26-27の航空気象通報(国内、海外)

2007年07月26日 23時00分42秒 | TAF
羽田空港
TAF RJTT 260848Z 261812 04006KT 8000 FEW010 SCT020
BECMG 0003 09010KT
BECMG 0609 18012KT
日本時間27日03-09時:040度から6ノットの風
09-12時:風が変化
12-15時:090度から10ノットの風
15-18時:風が変化
18-21時:180度から12ノットの風


那覇空港
ROAH 260841Z 261812 05010KT 9999 FEW015
日本時間27日09時-28日03時:050度から10ノットの風


マウイのカフルイ空港
PHOG 261125Z 261212 05012KT P6SM SCT030
TEMPO 1214 3SM -SHRA BKN030
FM2000 04018G26KT P6SM SCT030
FM0700 05012KT P6SM SCT030
ハワイ時間26日02-10時:050度から12ノットの風
10-21時:040度から18ノット、突風26ノット
21時-27日02時:050度から12ノットの風


サイパン空港
PGSN 261120Z 261212 06008KT P6SM VCSH SCT015 SCT050
FM2300 07013G20KT P6SM VCSH SCT016
FM0900 06009KT P6SM FEW015
マリアナ時間25日22時-27日09時:060度から8ノットの風
09-19時:070度から13ノット、突風20ノット
19-22時:060度から9ノットの風


グアム空港
TAFPQ TAF PGUM 261120Z 261212 06006KT P6SM VCSH FEW020 SCT050
FM2300 07013G20KT P6SM VCSH SCT025
FM0900 06009KT P6SM FEW020
マリアナ時間25日22時-27日09時:060度から6ノットの風
09-19時:070度から13ノット、突風20ノット
19-22時:060度から9ノットの風

コメント